sensor_id;sensor_type;location;lat;lon;timestamp;pressure;altitude;pressure_sealevel;temperature;humidity
19795;BME280;10057;59.402;17.866;2023-04-20T00:01:20;103204.88;;;5.49;42.23
19795;BME280;10057;59.402;17.866;2023-04-20T00:03:47;103201.34;;;5.49;42.51
19795;BME280;10057;59.402;17.866;2023-04-20T00:06:14;103199.59;;;5.49;42.89
19795;BME280;10057;59.402;17.866;2023-04-20T00:08:41;103198.81;;;5.53;42.79
19795;BME280;10057;59.402;17.866;2023-04-20T00:11:09;103204.28;;;5.61;42.64
19795;BME280;10057;59.402;17.866;2023-04-20T00:13:36;103199.97;;;5.64;42.41
19795;BME280;10057;59.402;17.866;2023-04-20T00:16:03;103200.69;;;5.59;42.51
19795;BME280;10057;59.402;17.866;2023-04-20T00:18:29;103195.22;;;5.50;42.60
19795;BME280;10057;59.402;17.866;2023-04-20T00:20:56;103202.13;;;5.44;42.79
19795;BME280;10057;59.402;17.866;2023-04-20T00:23:23;103201.19;;;5.41;43.01
19795;BME280;10057;59.402;17.866;2023-04-20T00:25:49;103200.34;;;5.43;43.51
19795;BME280;10057;59.402;17.866;2023-04-20T00:28:17;103196.06;;;5.47;43.17
19795;BME280;10057;59.402;17.866;2023-04-20T00:30:44;103189.88;;;5.46;42.91
19795;BME280;10057;59.402;17.866;2023-04-20T00:33:11;103187.94;;;5.38;43.46
19795;BME280;10057;59.402;17.866;2023-04-20T00:35:37;103192.13;;;5.30;43.43
19795;BME280;10057;59.402;17.866;2023-04-20T00:38:04;103185.09;;;5.29;43.82
19795;BME280;10057;59.402;17.866;2023-04-20T00:40:31;103183.22;;;5.25;43.84
19795;BME280;10057;59.402;17.866;2023-04-20T00:43:11;103185.88;;;5.26;43.72
19795;BME280;10057;59.402;17.866;2023-04-20T00:45:38;103188.59;;;5.29;43.58
19795;BME280;10057;59.402;17.866;2023-04-20T00:48:05;103185.09;;;5.29;43.82
19795;BME280;10057;59.402;17.866;2023-04-20T00:50:33;103188.56;;;5.28;43.81
19795;BME280;10057;59.402;17.866;2023-04-20T00:53:01;103185.94;;;5.28;43.65
19795;BME280;10057;59.402;17.866;2023-04-20T00:55:29;103187.72;;;5.29;43.87
19795;BME280;10057;59.402;17.866;2023-04-20T00:57:57;103179.88;;;5.32;43.94
19795;BME280;10057;59.402;17.866;2023-04-20T01:00:24;103172.00;;;5.32;44.02
19795;BME280;10057;59.402;17.866;2023-04-20T01:02:52;103179.03;;;5.33;43.79
19795;BME280;10057;59.402;17.866;2023-04-20T01:05:20;103175.50;;;5.32;44.17
19795;BME280;10057;59.402;17.866;2023-04-20T01:07:48;103180.69;;;5.29;44.19
19795;BME280;10057;59.402;17.866;2023-04-20T01:10:15;103175.25;;;5.20;44.02
19795;BME280;10057;59.402;17.866;2023-04-20T01:12:41;103174.69;;;4.97;44.13
19795;BME280;10057;59.402;17.866;2023-04-20T01:15:08;103177.78;;;4.81;44.48
19795;BME280;10057;59.402;17.866;2023-04-20T01:17:35;103168.91;;;4.77;45.00
19795;BME280;10057;59.402;17.866;2023-04-20T01:20:07;103172.66;;;4.87;44.62
19795;BME280;10057;59.402;17.866;2023-04-20T01:22:47;103172.75;;;4.90;44.70
19795;BME280;10057;59.402;17.866;2023-04-20T01:25:16;103168.22;;;4.84;44.51
19795;BME280;10057;59.402;17.866;2023-04-20T01:27:43;103168.81;;;4.72;44.94
19795;BME280;10057;59.402;17.866;2023-04-20T01:30:11;103172.16;;;4.67;44.64
19795;BME280;10057;59.402;17.866;2023-04-20T01:32:38;103167.88;;;4.70;45.01
19795;BME280;10057;59.402;17.866;2023-04-20T01:35:07;103166.28;;;4.77;44.68
19795;BME280;10057;59.402;17.866;2023-04-20T01:37:34;103164.59;;;4.79;45.16
19795;BME280;10057;59.402;17.866;2023-04-20T01:40:02;103159.13;;;4.71;45.06
19795;BME280;10057;59.402;17.866;2023-04-20T01:42:29;103160.69;;;4.65;45.17
19795;BME280;10057;59.402;17.866;2023-04-20T01:44:56;103163.38;;;4.66;45.06
19795;BME280;10057;59.402;17.866;2023-04-20T01:47:23;103153.81;;;4.68;45.17
19795;BME280;10057;59.402;17.866;2023-04-20T01:49:49;103165.91;;;4.62;44.83
19795;BME280;10057;59.402;17.866;2023-04-20T01:52:16;103167.22;;;4.46;45.40
19795;BME280;10057;59.402;17.866;2023-04-20T01:54:43;103159.06;;;4.35;45.29
19795;BME280;10057;59.402;17.866;2023-04-20T01:57:10;103164.13;;;4.27;45.78
19795;BME280;10057;59.402;17.866;2023-04-20T01:59:37;103166.56;;;4.21;45.74
19795;BME280;10057;59.402;17.866;2023-04-20T02:02:04;103165.72;;;4.22;46.21
19795;BME280;10057;59.402;17.866;2023-04-20T02:04:31;103159.59;;;4.23;45.92
19795;BME280;10057;59.402;17.866;2023-04-20T02:06:57;103156.06;;;4.21;45.95
19795;BME280;10057;59.402;17.866;2023-04-20T02:09:24;103163.09;;;4.22;46.29
19795;BME280;10057;59.402;17.866;2023-04-20T02:11:51;103154.50;;;4.28;46.14
19795;BME280;10057;59.402;17.866;2023-04-20T02:14:18;103145.88;;;4.34;45.82
19795;BME280;10057;59.402;17.866;2023-04-20T02:16:44;103150.31;;;4.36;45.96
19795;BME280;10057;59.402;17.866;2023-04-20T02:19:12;103150.38;;;4.38;45.78
19795;BME280;10057;59.402;17.866;2023-04-20T02:21:38;103146.84;;;4.37;45.92
19795;BME280;10057;59.402;17.866;2023-04-20T02:24:05;103145.06;;;4.36;46.23
19795;BME280;10057;59.402;17.866;2023-04-20T02:26:32;103147.75;;;4.38;46.03
19795;BME280;10057;59.402;17.866;2023-04-20T02:28:59;103145.19;;;4.41;45.86
19795;BME280;10057;59.402;17.866;2023-04-20T02:31:26;103142.44;;;4.36;46.11
19795;BME280;10057;59.402;17.866;2023-04-20T02:33:52;103139.63;;;4.30;46.18
19795;BME280;10057;59.402;17.866;2023-04-20T02:36:19;103140.50;;;4.29;46.24
19795;BME280;10057;59.402;17.866;2023-04-20T02:38:46;103137.84;;;4.27;46.36
19795;BME280;10057;59.402;17.866;2023-04-20T02:41:13;103145.75;;;4.29;46.11
19795;BME280;10057;59.402;17.866;2023-04-20T02:43:39;103142.16;;;4.25;46.31
19795;BME280;10057;59.402;17.866;2023-04-20T02:46:06;103140.41;;;4.26;46.40
19795;BME280;10057;59.402;17.866;2023-04-20T02:48:33;103143.00;;;4.24;46.43
19795;BME280;10057;59.402;17.866;2023-04-20T02:51:00;103138.50;;;4.20;46.68
19795;BME280;10057;59.402;17.866;2023-04-20T02:53:27;103139.31;;;4.18;46.49
19795;BME280;10057;59.402;17.866;2023-04-20T02:55:54;103138.25;;;4.11;46.96
19795;BME280;10057;59.402;17.866;2023-04-20T02:58:21;103132.75;;;4.02;46.94
19795;BME280;10057;59.402;17.866;2023-04-20T03:00:47;103136.22;;;4.01;47.03
19795;BME280;10057;59.402;17.866;2023-04-20T03:03:14;103140.53;;;3.99;47.18
19795;BME280;10057;59.402;17.866;2023-04-20T03:05:41;103132.66;;;3.99;46.92
19795;BME280;10057;59.402;17.866;2023-04-20T03:08:07;103130.88;;;3.98;47.18
19795;BME280;10057;59.402;17.866;2023-04-20T03:10:34;103134.44;;;4.00;47.02
19795;BME280;10057;59.402;17.866;2023-04-20T03:13:01;103127.41;;;3.99;46.99
19795;BME280;10057;59.402;17.866;2023-04-20T03:15:28;103127.09;;;3.88;47.37
19795;BME280;10057;59.402;17.866;2023-04-20T03:17:54;103128.47;;;3.75;47.35
19795;BME280;10057;59.402;17.866;2023-04-20T03:20:21;103135.03;;;3.60;47.63
19795;BME280;10057;59.402;17.866;2023-04-20T03:22:48;103132.13;;;3.50;47.92
19795;BME280;10057;59.402;17.866;2023-04-20T03:25:14;103129.53;;;3.52;47.84
19795;BME280;10057;59.402;17.866;2023-04-20T03:27:44;103124.44;;;3.56;48.09
19795;BME280;10057;59.402;17.866;2023-04-20T03:30:12;103123.97;;;3.70;47.92
19795;BME280;10057;59.402;17.866;2023-04-20T03:32:39;103125.13;;;3.79;47.93
19795;BME280;10057;59.402;17.866;2023-04-20T03:35:07;103126.97;;;3.84;47.91
19795;BME280;10057;59.402;17.866;2023-04-20T03:37:37;103120.03;;;3.86;47.63
19795;BME280;10057;59.402;17.866;2023-04-20T03:40:05;103128.88;;;3.89;47.92
19795;BME280;10057;59.402;17.866;2023-04-20T03:42:32;103124.53;;;3.90;48.09
19795;BME280;10057;59.402;17.866;2023-04-20T03:44:59;103131.66;;;3.94;47.65
19795;BME280;10057;59.402;17.866;2023-04-20T03:47:26;103130.00;;;3.97;47.84
19795;BME280;10057;59.402;17.866;2023-04-20T03:49:53;103121.28;;;4.00;47.63
19795;BME280;10057;59.402;17.866;2023-04-20T03:52:19;103133.78;;;4.07;47.82
19795;BME280;10057;59.402;17.866;2023-04-20T03:54:46;103133.84;;;4.10;47.61
19795;BME280;10057;59.402;17.866;2023-04-20T03:57:13;103128.47;;;4.06;47.66
19795;BME280;10057;59.402;17.866;2023-04-20T03:59:40;103117.75;;;3.98;47.74
19795;BME280;10057;59.402;17.866;2023-04-20T04:02:08;103121.91;;;3.90;47.93
19795;BME280;10057;59.402;17.866;2023-04-20T04:04:36;103128.63;;;3.80;48.24
19795;BME280;10057;59.402;17.866;2023-04-20T04:07:03;103124.88;;;3.72;48.09
19795;BME280;10057;59.402;17.866;2023-04-20T04:09:30;103124.94;;;3.73;48.56
19795;BME280;10057;59.402;17.866;2023-04-20T04:11:57;103131.19;;;3.78;48.43
19795;BME280;10057;59.402;17.866;2023-04-20T04:14:24;103129.63;;;3.85;48.35
19795;BME280;10057;59.402;17.866;2023-04-20T04:16:50;103129.69;;;3.87;48.45
19795;BME280;10057;59.402;17.866;2023-04-20T04:19:17;103128.78;;;3.86;48.65
19795;BME280;10057;59.402;17.866;2023-04-20T04:21:44;103132.34;;;3.87;48.43
19795;BME280;10057;59.402;17.866;2023-04-20T04:24:11;103136.72;;;3.88;48.70
19795;BME280;10057;59.402;17.866;2023-04-20T04:26:38;103128.88;;;3.89;48.65
19795;BME280;10057;59.402;17.866;2023-04-20T04:29:05;103129.84;;;3.93;48.66
19795;BME280;10057;59.402;17.866;2023-04-20T04:31:32;103130.00;;;3.97;49.01
19795;BME280;10057;59.402;17.866;2023-04-20T04:33:59;103131.88;;;4.03;48.82
19795;BME280;10057;59.402;17.866;2023-04-20T04:36:26;103130.28;;;4.08;48.71
19795;BME280;10057;59.402;17.866;2023-04-20T04:38:53;103129.53;;;4.12;49.07
19795;BME280;10057;59.402;17.866;2023-04-20T04:41:19;103141.06;;;4.17;48.77
19795;BME280;10057;59.402;17.866;2023-04-20T04:43:46;103140.22;;;4.20;48.87
19795;BME280;10057;59.402;17.866;2023-04-20T04:46:13;103131.56;;;4.22;48.73
19795;BME280;10057;59.402;17.866;2023-04-20T04:48:40;103127.25;;;4.26;48.74
19795;BME280;10057;59.402;17.866;2023-04-20T04:51:08;103131.72;;;4.28;49.01
19795;BME280;10057;59.402;17.866;2023-04-20T04:53:35;103131.75;;;4.30;48.99
19795;BME280;10057;59.402;17.866;2023-04-20T04:56:03;103137.97;;;4.34;48.84
19795;BME280;10057;59.402;17.866;2023-04-20T04:58:29;103141.56;;;4.36;49.02
19795;BME280;10057;59.402;17.866;2023-04-20T05:00:56;103140.75;;;4.38;49.33
19795;BME280;10057;59.402;17.866;2023-04-20T05:03:23;103137.28;;;4.41;49.31
19795;BME280;10057;59.402;17.866;2023-04-20T05:05:50;103148.06;;;4.50;48.92
19795;BME280;10057;59.402;17.866;2023-04-20T05:08:17;103140.28;;;4.55;49.01
19795;BME280;10057;59.402;17.866;2023-04-20T05:10:43;103142.19;;;4.60;49.22
19795;BME280;10057;59.402;17.866;2023-04-20T05:13:10;103135.25;;;4.64;48.81
19795;BME280;10057;59.402;17.866;2023-04-20T05:15:37;103136.31;;;4.70;49.20
19795;BME280;10057;59.402;17.866;2023-04-20T05:18:04;103129.44;;;4.75;49.09
19795;BME280;10057;59.402;17.866;2023-04-20T05:20:30;103133.94;;;4.81;49.39
19795;BME280;10057;59.402;17.866;2023-04-20T05:22:57;103139.34;;;4.87;48.94
19795;BME280;10057;59.402;17.866;2023-04-20T05:25:27;103129.88;;;4.94;49.02
19795;BME280;10057;59.402;17.866;2023-04-20T05:27:55;103126.53;;;5.01;48.72
19795;BME280;10057;59.402;17.866;2023-04-20T05:30:21;103129.25;;;5.06;49.18
19795;BME280;10057;59.402;17.866;2023-04-20T05:32:49;103129.41;;;5.12;48.93
19795;BME280;10057;59.402;17.866;2023-04-20T05:35:17;103134.81;;;5.16;49.15
19795;BME280;10057;59.402;17.866;2023-04-20T05:37:44;103139.28;;;5.20;48.94
19795;BME280;10057;59.402;17.866;2023-04-20T05:40:13;103130.66;;;5.28;49.23
19795;BME280;10057;59.402;17.866;2023-04-20T05:42:40;103130.81;;;5.35;48.87
19795;BME280;10057;59.402;17.866;2023-04-20T05:45:08;103130.16;;;5.44;49.25
19795;BME280;10057;59.402;17.866;2023-04-20T05:47:35;103125.00;;;5.50;48.94
19795;BME280;10057;59.402;17.866;2023-04-20T05:50:02;103116.34;;;5.56;48.87
19795;BME280;10057;59.402;17.866;2023-04-20T05:52:29;103118.25;;;5.61;49.00
19795;BME280;10057;59.402;17.866;2023-04-20T05:54:56;103121.91;;;5.68;48.80
19795;BME280;10057;59.402;17.866;2023-04-20T05:57:22;103128.19;;;5.75;48.72
19795;BME280;10057;59.402;17.866;2023-04-20T05:59:50;103121.31;;;5.83;48.78
19795;BME280;10057;59.402;17.866;2023-04-20T06:02:17;103122.34;;;5.91;48.87
19795;BME280;10057;59.402;17.866;2023-04-20T06:04:44;103127.81;;;5.99;49.23
19795;BME280;10057;59.402;17.866;2023-04-20T06:07:11;103112.16;;;6.08;49.04
19795;BME280;10057;59.402;17.866;2023-04-20T06:09:38;103115.84;;;6.16;49.12
19795;BME280;10057;59.402;17.866;2023-04-20T06:12:04;103116.84;;;6.23;48.41
19795;BME280;10057;59.402;17.866;2023-04-20T06:14:31;103113.47;;;6.30;48.31
19795;BME280;10057;59.402;17.866;2023-04-20T06:16:58;103105.69;;;6.37;48.47
19795;BME280;10057;59.402;17.866;2023-04-20T06:19:25;103114.66;;;6.47;48.71
19795;BME280;10057;59.402;17.866;2023-04-20T06:21:52;103120.06;;;6.56;48.53
19795;BME280;10057;59.402;17.866;2023-04-20T06:24:18;103114.94;;;6.65;48.40
19795;BME280;10057;59.402;17.866;2023-04-20T06:26:45;103116.00;;;6.74;48.56
19795;BME280;10057;59.402;17.866;2023-04-20T06:29:12;103115.28;;;6.84;48.38
19795;BME280;10057;59.402;17.866;2023-04-20T06:31:39;103114.50;;;6.93;48.15
19795;BME280;10057;59.402;17.866;2023-04-20T06:34:05;103117.31;;;7.03;47.86
19795;BME280;10057;59.402;17.866;2023-04-20T06:36:32;103113.09;;;7.15;47.80
19795;BME280;10057;59.402;17.866;2023-04-20T06:38:59;103110.56;;;7.24;47.52
19795;BME280;10057;59.402;17.866;2023-04-20T06:41:26;103113.34;;;7.33;48.10
19795;BME280;10057;59.402;17.866;2023-04-20T06:43:53;103107.31;;;7.43;47.57
19795;BME280;10057;59.402;17.866;2023-04-20T06:46:20;103113.59;;;7.51;47.37
19795;BME280;10057;59.402;17.866;2023-04-20T06:48:46;103118.13;;;7.60;47.38
19795;BME280;10057;59.402;17.866;2023-04-20T06:51:13;103120.00;;;7.72;47.43
19795;BME280;10057;59.402;17.866;2023-04-20T06:53:40;103116.66;;;7.83;47.10
19795;BME280;10057;59.402;17.866;2023-04-20T06:56:07;103115.94;;;7.97;47.31
19795;BME280;10057;59.402;17.866;2023-04-20T06:58:33;103116.97;;;8.11;47.33
19795;BME280;10057;59.402;17.866;2023-04-20T07:01:01;103111.81;;;8.25;47.07
19795;BME280;10057;59.402;17.866;2023-04-20T07:03:28;103119.03;;;8.40;46.98
19795;BME280;10057;59.402;17.866;2023-04-20T07:05:54;103109.47;;;8.52;46.75
19795;BME280;10057;59.402;17.866;2023-04-20T07:08:21;103112.22;;;8.68;46.88
19795;BME280;10057;59.402;17.866;2023-04-20T07:10:48;103119.38;;;8.81;46.43
19795;BME280;10057;59.402;17.866;2023-04-20T07:13:15;103112.44;;;8.94;46.59
19795;BME280;10057;59.402;17.866;2023-04-20T07:15:44;103116.94;;;9.09;46.51
19795;BME280;10057;59.402;17.866;2023-04-20T07:18:11;103109.09;;;9.21;46.00
19795;BME280;10057;59.402;17.866;2023-04-20T07:20:38;103113.59;;;9.34;45.60
19795;BME280;10057;59.402;17.866;2023-04-20T07:23:04;103120.69;;;9.46;45.62
19795;BME280;10057;59.402;17.866;2023-04-20T07:25:32;103117.19;;;9.53;45.94
19795;BME280;10057;59.402;17.866;2023-04-20T07:27:58;103115.50;;;9.66;45.84
19795;BME280;10057;59.402;17.866;2023-04-20T07:30:25;103118.19;;;9.78;45.55
19795;BME280;10057;59.402;17.866;2023-04-20T07:32:52;103106.75;;;9.88;45.21
19795;BME280;10057;59.402;17.866;2023-04-20T07:35:19;103113.84;;;10.00;44.96
19795;BME280;10057;59.402;17.866;2023-04-20T07:37:46;103108.56;;;10.11;44.79
19795;BME280;10057;59.402;17.866;2023-04-20T07:40:13;103108.59;;;10.23;44.48
19795;BME280;10057;59.402;17.866;2023-04-20T07:42:40;103104.22;;;10.33;44.66
19795;BME280;10057;59.402;17.866;2023-04-20T07:45:07;103099.78;;;10.46;44.06
19795;BME280;10057;59.402;17.866;2023-04-20T07:47:35;103102.44;;;10.56;43.93
19795;BME280;10057;59.402;17.866;2023-04-20T07:50:06;103103.34;;;10.69;43.95
19795;BME280;10057;59.402;17.866;2023-04-20T07:52:33;103104.22;;;10.79;43.61
19795;BME280;10057;59.402;17.866;2023-04-20T07:55:00;103105.09;;;10.91;43.58
19795;BME280;10057;59.402;17.866;2023-04-20T07:57:27;103106.84;;;11.03;43.22
19795;BME280;10057;59.402;17.866;2023-04-20T07:59:54;103097.97;;;11.13;43.74
19795;BME280;10057;59.402;17.866;2023-04-20T08:02:21;103100.63;;;11.26;43.43
19795;BME280;10057;59.402;17.866;2023-04-20T08:04:48;103100.56;;;11.38;42.94
19795;BME280;10057;59.402;17.866;2023-04-20T08:07:15;103097.91;;;11.49;42.72
19795;BME280;10057;59.402;17.866;2023-04-20T08:09:43;103098.72;;;11.58;42.13
19795;BME280;10057;59.402;17.866;2023-04-20T08:12:09;103096.00;;;11.72;42.38
19795;BME280;10057;59.402;17.866;2023-04-20T08:14:36;103097.72;;;11.89;42.19
19795;BME280;10057;59.402;17.866;2023-04-20T08:17:03;103094.94;;;12.10;42.63
19795;BME280;10057;59.402;17.866;2023-04-20T08:19:30;103087.66;;;12.41;42.93
19795;BME280;10057;59.402;17.866;2023-04-20T08:21:57;103089.13;;;12.74;42.54
19795;BME280;10057;59.402;17.866;2023-04-20T08:24:26;103080.75;;;13.11;42.51
19795;BME280;10057;59.402;17.866;2023-04-20T08:26:53;103092.88;;;13.44;41.39
19795;BME280;10057;59.402;17.866;2023-04-20T08:29:20;103092.53;;;13.70;41.12
19795;BME280;10057;59.402;17.866;2023-04-20T08:31:47;103084.97;;;14.03;41.26
19795;BME280;10057;59.402;17.866;2023-04-20T08:34:16;103085.69;;;14.16;40.64
19795;BME280;10057;59.402;17.866;2023-04-20T08:36:43;103083.53;;;14.38;40.36
19795;BME280;10057;59.402;17.866;2023-04-20T08:39:12;103084.28;;;14.46;38.79
19795;BME280;10057;59.402;17.866;2023-04-20T08:41:40;103083.72;;;14.27;39.10
19795;BME280;10057;59.402;17.866;2023-04-20T08:44:06;103074.00;;;14.21;38.47
19795;BME280;10057;59.402;17.866;2023-04-20T08:46:34;103080.38;;;14.13;38.14
19795;BME280;10057;59.402;17.866;2023-04-20T08:49:01;103080.53;;;14.01;37.95
19795;BME280;10057;59.402;17.866;2023-04-20T08:51:29;103071.81;;;13.89;37.63
19795;BME280;10057;59.402;17.866;2023-04-20T08:54:03;103074.59;;;13.82;37.18
19795;BME280;10057;59.402;17.866;2023-04-20T08:56:35;103069.28;;;13.80;37.84
19795;BME280;10057;59.402;17.866;2023-04-20T08:59:03;103078.00;;;13.93;37.74
19795;BME280;10057;59.402;17.866;2023-04-20T09:01:37;103073.38;;;14.06;37.41
19795;BME280;10057;59.402;17.866;2023-04-20T09:04:21;103066.06;;;14.17;37.48
19795;BME280;10057;59.402;17.866;2023-04-20T09:06:51;103060.41;;;14.35;36.72
19795;BME280;10057;59.402;17.866;2023-04-20T09:09:19;103072.06;;;14.31;36.24
19795;BME280;10057;59.402;17.866;2023-04-20T09:11:47;103064.84;;;14.38;36.20
19795;BME280;10057;59.402;17.866;2023-04-20T09:14:24;103065.72;;;14.40;35.54
19795;BME280;10057;59.402;17.866;2023-04-20T09:16:53;103064.69;;;14.47;35.00
19795;BME280;10057;59.402;17.866;2023-04-20T09:19:23;103054.69;;;14.61;34.82
19795;BME280;10057;59.402;17.866;2023-04-20T09:21:52;103054.34;;;14.81;34.60
19795;BME280;10057;59.402;17.866;2023-04-20T09:24:21;103054.69;;;15.09;34.60
19795;BME280;10057;59.402;17.866;2023-04-20T09:26:48;103057.66;;;15.39;34.44
19795;BME280;10057;59.402;17.866;2023-04-20T09:29:19;103052.78;;;15.59;34.40
19795;BME280;10057;59.402;17.866;2023-04-20T09:31:47;103053.38;;;15.74;34.50
19795;BME280;10057;59.402;17.866;2023-04-20T09:34:15;103046.81;;;15.87;34.22
19795;BME280;10057;59.402;17.866;2023-04-20T09:36:47;103046.72;;;15.92;33.69
19795;BME280;10057;59.402;17.866;2023-04-20T09:39:19;103038.44;;;16.02;34.22
19795;BME280;10057;59.402;17.866;2023-04-20T09:41:46;103038.06;;;16.18;33.91
19795;BME280;10057;59.402;17.866;2023-04-20T09:44:15;103036.94;;;16.28;33.89
19795;BME280;10057;59.402;17.866;2023-04-20T09:46:43;103039.25;;;16.42;33.87
19795;BME280;10057;59.402;17.866;2023-04-20T09:49:11;103030.16;;;16.47;33.56
19795;BME280;10057;59.402;17.866;2023-04-20T09:51:41;103032.91;;;16.46;33.45
19795;BME280;10057;59.402;17.866;2023-04-20T09:54:11;103030.06;;;16.52;33.29
19795;BME280;10057;59.402;17.866;2023-04-20T09:56:38;103031.00;;;16.49;32.95
19795;BME280;10057;59.402;17.866;2023-04-20T09:59:06;103023.13;;;16.43;32.99
19795;BME280;10057;59.402;17.866;2023-04-20T10:01:34;103020.25;;;16.51;33.11
19795;BME280;10057;59.402;17.866;2023-04-20T10:04:06;103018.25;;;16.59;32.99
19795;BME280;10057;59.402;17.866;2023-04-20T10:06:35;103016.31;;;16.64;32.74
19795;BME280;10057;59.402;17.866;2023-04-20T10:09:04;103018.91;;;16.69;32.60
19795;BME280;10057;59.402;17.866;2023-04-20T10:11:36;103019.66;;;16.75;32.55
19795;BME280;10057;59.402;17.866;2023-04-20T10:14:23;103008.66;;;16.85;32.44
19795;BME280;10057;59.402;17.866;2023-04-20T10:17:01;103002.97;;;16.95;32.17
19795;BME280;10057;59.402;17.866;2023-04-20T10:19:42;103007.44;;;16.96;32.06
19795;BME280;10057;59.402;17.866;2023-04-20T10:22:11;103007.56;;;16.92;32.29
19795;BME280;10057;59.402;17.866;2023-04-20T10:24:38;102998.63;;;16.91;32.33
19795;BME280;10057;59.402;17.866;2023-04-20T10:27:25;103004.75;;;16.96;32.31
19795;BME280;10057;59.402;17.866;2023-04-20T10:29:52;102992.09;;;17.01;32.23
19795;BME280;10057;59.402;17.866;2023-04-20T10:32:27;102992.16;;;17.00;32.13
19795;BME280;10057;59.402;17.866;2023-04-20T10:35:05;102993.84;;;17.02;32.05
19795;BME280;10057;59.402;17.866;2023-04-20T10:37:33;102981.91;;;17.13;32.21
19795;BME280;10057;59.402;17.866;2023-04-20T10:40:01;102988.38;;;17.05;31.32
19795;BME280;10057;59.402;17.866;2023-04-20T10:42:43;102989.16;;;16.79;31.68
19795;BME280;10057;59.402;17.866;2023-04-20T10:45:11;102977.69;;;16.73;31.55
19795;BME280;10057;59.402;17.866;2023-04-20T10:47:38;102981.63;;;16.59;31.63
19795;BME280;10057;59.402;17.866;2023-04-20T10:50:13;102974.25;;;16.68;31.93
19795;BME280;10057;59.402;17.866;2023-04-20T10:52:41;102978.25;;;16.86;31.99
19795;BME280;10057;59.402;17.866;2023-04-20T10:57:46;102970.47;;;17.08;31.28
19795;BME280;10057;59.402;17.866;2023-04-20T11:00:15;102963.28;;;17.08;31.36
19795;BME280;10057;59.402;17.866;2023-04-20T11:02:59;102958.63;;;17.15;30.72
19795;BME280;10057;59.402;17.866;2023-04-20T11:05:26;102955.47;;;17.00;30.81
19795;BME280;10057;59.402;17.866;2023-04-20T11:10:24;102949.72;;;17.13;30.94
19795;BME280;10057;59.402;17.866;2023-04-20T11:12:51;102940.72;;;17.15;30.53
19795;BME280;10057;59.402;17.866;2023-04-20T11:15:18;102941.69;;;17.13;30.79
19795;BME280;10057;59.402;17.866;2023-04-20T11:17:45;102949.28;;;17.28;30.97
19795;BME280;10057;59.402;17.866;2023-04-20T11:20:14;102939.00;;;17.42;30.71
19795;BME280;10057;59.402;17.866;2023-04-20T11:22:43;102942.22;;;17.53;30.24
19795;BME280;10057;59.402;17.866;2023-04-20T11:25:11;102934.22;;;17.52;29.97
19795;BME280;10057;59.402;17.866;2023-04-20T11:27:38;102935.06;;;17.54;30.02
19795;BME280;10057;59.402;17.866;2023-04-20T11:30:06;102932.94;;;17.36;29.48
19795;BME280;10057;59.402;17.866;2023-04-20T11:32:35;102933.28;;;17.25;30.04
19795;BME280;10057;59.402;17.866;2023-04-20T11:35:05;102927.78;;;17.29;29.87
19795;BME280;10057;59.402;17.866;2023-04-20T11:37:45;102922.28;;;17.34;29.43
19795;BME280;10057;59.402;17.866;2023-04-20T11:40:12;102925.50;;;17.16;28.62
19795;BME280;10057;59.402;17.866;2023-04-20T11:42:40;102929.81;;;16.92;28.91
19795;BME280;10057;59.402;17.866;2023-04-20T11:45:07;102931.19;;;16.74;28.97
19795;BME280;10057;59.402;17.866;2023-04-20T11:47:34;102924.03;;;16.76;29.59
19795;BME280;10057;59.402;17.866;2023-04-20T11:50:01;102921.66;;;16.96;29.63
19795;BME280;10057;59.402;17.866;2023-04-20T11:52:28;102916.59;;;17.15;29.93
19795;BME280;10057;59.402;17.866;2023-04-20T11:54:54;102914.03;;;17.40;30.10
19795;BME280;10057;59.402;17.866;2023-04-20T11:57:21;102911.59;;;17.61;29.37
19795;BME280;10057;59.402;17.866;2023-04-20T11:59:49;102906.94;;;17.66;28.97
19795;BME280;10057;59.402;17.866;2023-04-20T12:02:16;102899.63;;;17.71;29.10
19795;BME280;10057;59.402;17.866;2023-04-20T12:04:43;102896.81;;;17.74;28.87
19795;BME280;10057;59.402;17.866;2023-04-20T12:07:10;102900.59;;;17.68;28.29
19795;BME280;10057;59.402;17.866;2023-04-20T12:09:36;102894.38;;;17.68;28.04
19795;BME280;10057;59.402;17.866;2023-04-20T12:12:04;102889.78;;;17.71;28.20
19795;BME280;10057;59.402;17.866;2023-04-20T12:14:32;102887.78;;;17.78;28.01
19795;BME280;10057;59.402;17.866;2023-04-20T12:17:00;102887.72;;;17.80;27.89
19795;BME280;10057;59.402;17.866;2023-04-20T12:19:27;102881.47;;;17.79;27.81
19795;BME280;10057;59.402;17.866;2023-04-20T12:21:54;102882.31;;;17.81;27.58
19795;BME280;10057;59.402;17.866;2023-04-20T12:24:21;102881.41;;;17.81;27.72
19795;BME280;10057;59.402;17.866;2023-04-20T12:26:48;102880.28;;;17.88;27.67
19795;BME280;10057;59.402;17.866;2023-04-20T12:29:14;102872.84;;;17.96;27.75
19795;BME280;10057;59.402;17.866;2023-04-20T12:31:42;102877.84;;;18.07;27.57
19795;BME280;10057;59.402;17.866;2023-04-20T12:34:09;102877.28;;;18.22;27.54
19795;BME280;10057;59.402;17.866;2023-04-20T12:36:36;102868.81;;;18.34;27.36
19795;BME280;10057;59.402;17.866;2023-04-20T12:39:03;102857.63;;;18.46;27.48
19795;BME280;10057;59.402;17.866;2023-04-20T12:41:29;102854.66;;;18.53;26.99
19795;BME280;10057;59.402;17.866;2023-04-20T12:43:56;102862.63;;;18.56;26.78
19795;BME280;10057;59.402;17.866;2023-04-20T12:46:23;102854.97;;;18.45;26.79
19795;BME280;10057;59.402;17.866;2023-04-20T12:48:51;102847.19;;;18.37;26.66
19795;BME280;10057;59.402;17.866;2023-04-20T12:51:17;102854.06;;;18.21;26.21
19795;BME280;10057;59.402;17.866;2023-04-20T12:53:44;102852.13;;;17.99;26.91